createdAt,value
2022-12-25T00:01:22.367Z,6.95
2022-12-25T00:03:49.444Z,7.55
2022-12-25T00:06:15.901Z,6.72
2022-12-25T00:08:42.321Z,7.38
2022-12-25T00:11:14.210Z,7.63
2022-12-25T00:13:41.028Z,7.15
2022-12-25T00:16:09.652Z,7.32
2022-12-25T00:18:36.231Z,8.10
2022-12-25T00:21:05.636Z,7.43
2022-12-25T00:23:32.499Z,7.72
2022-12-25T00:25:58.945Z,8.13
2022-12-25T00:28:25.876Z,7.28
2022-12-25T00:30:52.413Z,8.02
2022-12-25T00:33:19.035Z,7.88
2022-12-25T00:35:45.548Z,8.55
2022-12-25T00:38:11.918Z,8.20
2022-12-25T00:40:43.057Z,7.57
2022-12-25T00:43:09.983Z,7.30
2022-12-25T00:45:36.449Z,8.00
2022-12-25T00:48:03.033Z,8.68
2022-12-25T00:50:29.483Z,8.00
2022-12-25T00:52:55.797Z,8.70
2022-12-25T00:55:22.131Z,7.63
2022-12-25T00:57:48.519Z,8.73
2022-12-25T01:00:15.440Z,8.48
2022-12-25T01:02:41.896Z,8.63
2022-12-25T01:08:18.719Z,8.13
2022-12-25T01:10:45.055Z,8.48
2022-12-25T01:13:11.407Z,7.80
2022-12-25T01:15:37.715Z,7.45
2022-12-25T01:18:07.776Z,7.28
2022-12-25T01:20:35.162Z,7.88
2022-12-25T01:23:01.520Z,8.13
2022-12-25T01:25:27.873Z,8.40
2022-12-25T01:27:54.296Z,8.70
2022-12-25T01:30:20.670Z,8.60
2022-12-25T01:32:47.001Z,7.70
2022-12-25T01:35:13.407Z,8.57
2022-12-25T01:37:39.731Z,8.43
2022-12-25T01:40:07.128Z,8.05
2022-12-25T01:42:33.648Z,7.65
2022-12-25T01:45:27.423Z,7.28
2022-12-25T01:47:53.820Z,7.25
2022-12-25T01:50:20.878Z,6.85
2022-12-25T01:52:48.132Z,7.50
2022-12-25T01:55:14.961Z,7.18
2022-12-25T01:57:43.031Z,7.90
2022-12-25T02:00:10.806Z,7.30
2022-12-25T02:02:37.666Z,8.88
2022-12-25T02:05:11.988Z,7.75
2022-12-25T02:07:42.939Z,7.70
2022-12-25T02:10:10.838Z,7.63
2022-12-25T02:12:38.503Z,7.88
2022-12-25T02:15:15.389Z,6.90
2022-12-25T02:18:02.786Z,7.03
2022-12-25T02:20:44.273Z,6.93
2022-12-25T02:23:28.884Z,6.82
2022-12-25T02:26:16.928Z,6.68
2022-12-25T02:28:50.134Z,7.18
2022-12-25T02:31:36.455Z,6.65
2022-12-25T02:34:11.524Z,5.95
2022-12-25T02:36:48.932Z,6.47
2022-12-25T02:39:44.247Z,7.30
2022-12-25T02:42:16.487Z,6.80
2022-12-25T02:45:06.053Z,6.95
2022-12-25T02:47:53.045Z,6.45
2022-12-25T02:50:39.289Z,6.55
2022-12-25T02:53:27.680Z,6.35
2022-12-25T02:56:14.655Z,7.00
2022-12-25T02:59:01.556Z,6.95
2022-12-25T03:01:51.382Z,6.15
2022-12-25T03:04:41.571Z,6.32
2022-12-25T03:07:15.791Z,6.32
2022-12-25T03:10:21.521Z,6.88
2022-12-25T03:13:04.109Z,6.78
2022-12-25T03:15:51.469Z,7.03
2022-12-25T03:18:22.266Z,6.20
2022-12-25T03:21:07.308Z,6.38
2022-12-25T03:23:53.730Z,6.77
2022-12-25T03:26:38.536Z,6.20
2022-12-25T03:29:04.925Z,6.45
2022-12-25T03:31:45.291Z,6.28
2022-12-25T03:34:35.922Z,7.05
2022-12-25T03:37:45.634Z,6.35
2022-12-25T03:40:51.271Z,6.13
2022-12-25T03:43:57.066Z,6.57
2022-12-25T03:46:55.850Z,6.35
2022-12-25T03:49:48.718Z,5.95
2022-12-25T03:52:37.433Z,6.30
2022-12-25T03:55:26.953Z,6.32
2022-12-25T03:58:11.935Z,5.85
2022-12-25T04:00:56.675Z,4.93
2022-12-25T04:03:41.576Z,5.85
2022-12-25T04:06:26.317Z,6.03
2022-12-25T04:09:11.168Z,5.20
2022-12-25T04:12:02.027Z,5.80
2022-12-25T04:14:48.148Z,6.32
2022-12-25T04:17:32.991Z,6.50
2022-12-25T04:20:17.761Z,5.70
2022-12-25T04:23:02.541Z,6.15
2022-12-25T04:25:47.461Z,5.78
2022-12-25T04:28:32.121Z,5.68
2022-12-25T04:31:20.162Z,6.93
2022-12-25T04:34:04.979Z,5.10
2022-12-25T04:36:31.367Z,5.75
2022-12-25T04:38:57.701Z,6.43
2022-12-25T04:41:24.099Z,6.38
2022-12-25T04:43:50.464Z,6.20
2022-12-25T04:46:16.837Z,6.30
2022-12-25T04:48:43.243Z,6.25
2022-12-25T04:51:21.084Z,5.82
2022-12-25T04:53:48.933Z,5.60
2022-12-25T04:56:16.472Z,5.20
2022-12-25T04:58:43.164Z,5.35
2022-12-25T05:01:10.664Z,6.03
2022-12-25T05:03:37.590Z,5.35
2022-12-25T05:06:05.339Z,5.65
2022-12-25T05:08:34.026Z,5.53
2022-12-25T05:11:04.492Z,4.93
2022-12-25T05:13:31.723Z,4.65
2022-12-25T05:15:58.172Z,5.13
2022-12-25T05:18:24.750Z,5.38
2022-12-25T05:20:53.179Z,5.32
2022-12-25T05:23:19.781Z,5.20
2022-12-25T05:25:46.202Z,4.65
2022-12-25T05:28:12.534Z,5.53
2022-12-25T05:30:39.419Z,4.22
2022-12-25T05:33:05.872Z,4.20
2022-12-25T05:35:32.379Z,4.85
2022-12-25T05:37:58.713Z,4.88
2022-12-25T05:40:25.122Z,5.15
2022-12-25T05:42:51.448Z,4.07
2022-12-25T05:45:17.936Z,4.53
2022-12-25T05:47:44.300Z,4.85
2022-12-25T05:50:10.955Z,4.03
2022-12-25T05:52:37.413Z,4.00
2022-12-25T05:55:03.965Z,4.70
2022-12-25T05:57:31.777Z,3.95
2022-12-25T05:59:58.164Z,4.38
2022-12-25T06:02:25.364Z,4.00
2022-12-25T06:04:51.898Z,4.40
2022-12-25T06:07:18.196Z,4.55
2022-12-25T06:09:44.583Z,4.85
2022-12-25T06:12:10.920Z,5.07
2022-12-25T06:14:37.235Z,4.80
2022-12-25T06:17:03.701Z,4.20
2022-12-25T06:19:30.208Z,5.22
2022-12-25T06:21:56.581Z,4.93
2022-12-25T06:24:23.614Z,5.25
2022-12-25T06:26:50.200Z,4.90
2022-12-25T06:29:16.596Z,4.13
2022-12-25T06:31:43.034Z,4.28
2022-12-25T06:34:10.121Z,4.95
2022-12-25T06:36:38.391Z,4.95
2022-12-25T06:39:04.786Z,4.60
2022-12-25T06:41:31.322Z,4.95
2022-12-25T06:44:00.226Z,5.03
2022-12-25T06:46:29.177Z,5.10
2022-12-25T06:48:56.861Z,4.57
2022-12-25T06:51:25.973Z,5.78
2022-12-25T06:53:53.284Z,5.47
2022-12-25T06:56:22.242Z,4.97
2022-12-25T06:58:50.854Z,4.82
2022-12-25T07:01:21.179Z,5.65
2022-12-25T07:03:51.571Z,5.05
2022-12-25T07:06:17.959Z,4.07
2022-12-25T07:08:44.349Z,5.28
2022-12-25T07:11:10.849Z,5.43
2022-12-25T07:13:37.182Z,4.85
2022-12-25T07:16:05.227Z,5.20
2022-12-25T07:18:32.162Z,5.18
2022-12-25T07:21:01.186Z,5.47
2022-12-25T07:23:27.516Z,4.40
2022-12-25T07:25:55.429Z,5.13
2022-12-25T07:28:21.835Z,4.93
2022-12-25T07:30:48.239Z,5.85
2022-12-25T07:33:14.928Z,5.68
2022-12-25T07:35:41.476Z,5.10
2022-12-25T07:38:08.080Z,4.95
2022-12-25T07:40:35.395Z,5.97
2022-12-25T07:43:01.794Z,5.57
2022-12-25T07:45:28.183Z,5.38
2022-12-25T07:47:55.241Z,4.45
2022-12-25T07:50:21.806Z,5.53
2022-12-25T07:52:48.082Z,5.50
2022-12-25T07:55:14.508Z,5.10
2022-12-25T07:57:40.913Z,5.15
2022-12-25T08:00:07.831Z,5.32
2022-12-25T08:08:15.698Z,5.50
2022-12-25T08:10:48.595Z,5.22
2022-12-25T08:13:14.986Z,4.68
2022-12-25T08:15:41.965Z,4.80
2022-12-25T08:18:08.364Z,4.97
2022-12-25T08:20:35.050Z,5.47
2022-12-25T08:23:01.477Z,5.78
2022-12-25T08:25:27.876Z,5.18
2022-12-25T08:27:54.273Z,5.10
2022-12-25T08:30:20.618Z,6.20
2022-12-25T08:32:47.002Z,5.25
2022-12-25T08:35:13.380Z,5.28
2022-12-25T08:37:39.956Z,5.05
2022-12-25T08:40:06.845Z,5.32
2022-12-25T08:42:33.127Z,5.25
2022-12-25T08:44:59.483Z,6.00
2022-12-25T08:47:25.812Z,5.55
2022-12-25T08:49:52.136Z,5.35
2022-12-25T08:52:18.505Z,5.82
2022-12-25T08:54:46.977Z,5.13
2022-12-25T08:57:13.278Z,6.15
2022-12-25T08:59:39.589Z,5.32
2022-12-25T09:02:06.310Z,4.63
2022-12-25T09:04:32.750Z,4.93
2022-12-25T09:07:00.166Z,5.70
2022-12-25T09:09:28.029Z,5.07
2022-12-25T09:11:54.542Z,5.30
2022-12-25T09:14:21.399Z,4.82
2022-12-25T09:16:50.260Z,5.53
2022-12-25T09:19:16.616Z,4.85
2022-12-25T09:21:42.947Z,4.82
2022-12-25T09:24:09.308Z,5.50
2022-12-25T09:26:36.962Z,5.18
2022-12-25T09:29:03.321Z,5.43
2022-12-25T09:31:30.371Z,5.30
2022-12-25T09:33:58.083Z,4.60
2022-12-25T09:36:25.004Z,5.00
2022-12-25T09:38:51.493Z,5.85
2022-12-25T09:41:29.722Z,5.00
2022-12-25T09:44:09.960Z,4.15
2022-12-25T09:46:43.551Z,5.55
2022-12-25T09:49:16.315Z,5.28
2022-12-25T09:51:45.437Z,4.43
2022-12-25T09:54:27.253Z,4.68
2022-12-25T09:56:53.605Z,5.30
2022-12-25T09:59:27.191Z,4.80
2022-12-25T10:02:24.890Z,4.80
2022-12-25T10:05:17.958Z,4.63
2022-12-25T10:07:53.182Z,5.18
2022-12-25T10:10:46.685Z,4.97
2022-12-25T10:13:49.299Z,5.97
2022-12-25T10:16:37.535Z,4.70
2022-12-25T10:19:13.049Z,4.88
2022-12-25T10:21:39.546Z,5.82
2022-12-25T10:24:10.255Z,4.70
2022-12-25T10:26:36.585Z,4.53
2022-12-25T10:29:13.061Z,4.85
2022-12-25T10:31:40.197Z,5.20
2022-12-25T10:34:07.016Z,5.68
2022-12-25T10:36:33.480Z,4.70
2022-12-25T10:38:59.927Z,5.32
2022-12-25T10:41:26.282Z,5.63
2022-12-25T10:43:57.455Z,4.68
2022-12-25T10:46:28.758Z,4.82
2022-12-25T10:48:58.718Z,5.15
2022-12-25T10:51:34.334Z,5.82
2022-12-25T10:54:20.525Z,5.80
2022-12-25T10:57:13.128Z,4.88
2022-12-25T10:59:47.732Z,4.72
2022-12-25T11:02:21.731Z,4.77
2022-12-25T11:04:48.593Z,5.38
2022-12-25T11:07:25.597Z,5.55
2022-12-25T11:10:05.762Z,5.45
2022-12-25T11:12:37.230Z,4.55
2022-12-25T11:15:26.208Z,5.57
2022-12-25T11:17:52.498Z,4.78
2022-12-25T11:20:20.165Z,4.63
2022-12-25T11:22:47.877Z,4.95
2022-12-25T11:25:20.925Z,4.20
2022-12-25T11:27:57.136Z,4.95
2022-12-25T11:30:23.597Z,6.40
2022-12-25T11:32:55.493Z,5.30
2022-12-25T11:35:27.654Z,5.22
2022-12-25T11:37:54.133Z,5.63
2022-12-25T11:40:34.613Z,5.18
2022-12-25T11:43:17.350Z,5.15
2022-12-25T11:45:52.312Z,5.15
2022-12-25T11:48:28.090Z,4.53
2022-12-25T11:50:59.189Z,4.10
2022-12-25T11:53:31.708Z,4.32
2022-12-25T11:56:02.120Z,4.00
2022-12-25T11:58:36.059Z,4.70
2022-12-25T12:01:09.044Z,4.38
2022-12-25T12:03:38.476Z,4.47
2022-12-25T12:06:25.777Z,4.40
2022-12-25T12:09:01.494Z,4.35
2022-12-25T12:11:43.598Z,4.88
2022-12-25T12:14:28.718Z,5.15
2022-12-25T12:16:55.225Z,4.65
2022-12-25T12:19:26.824Z,4.88
2022-12-25T12:21:55.922Z,4.20
2022-12-25T12:24:25.167Z,4.25
2022-12-25T12:27:19.273Z,4.70
2022-12-25T12:29:50.920Z,4.85
2022-12-25T12:32:44.806Z,4.53
2022-12-25T12:35:18.925Z,4.45
2022-12-25T12:37:51.045Z,4.50
2022-12-25T12:40:37.186Z,4.35
2022-12-25T12:43:06.168Z,4.68
2022-12-25T12:45:36.159Z,4.32
2022-12-25T12:48:14.595Z,4.00
2022-12-25T12:50:41.964Z,4.63
2022-12-25T12:53:23.700Z,4.50
2022-12-25T12:55:51.489Z,4.38
2022-12-25T12:58:34.943Z,4.28
2022-12-25T13:01:17.020Z,4.20
2022-12-25T13:03:57.846Z,4.10
2022-12-25T13:06:26.851Z,4.70
2022-12-25T13:09:25.408Z,4.18
2022-12-25T13:11:52.122Z,4.05
2022-12-25T13:14:21.477Z,4.20
2022-12-25T13:16:51.203Z,3.97
2022-12-25T13:19:23.479Z,4.65
2022-12-25T13:22:01.696Z,4.75
2022-12-25T13:24:30.952Z,4.47
2022-12-25T13:26:58.659Z,4.43
2022-12-25T13:29:32.229Z,4.00
2022-12-25T13:32:00.256Z,4.78
2022-12-25T13:34:32.668Z,4.60
2022-12-25T13:37:01.804Z,4.60
2022-12-25T13:39:28.489Z,4.70
2022-12-25T13:42:09.441Z,4.38
2022-12-25T13:44:44.440Z,4.25
2022-12-25T13:47:16.979Z,4.43
2022-12-25T13:49:43.365Z,4.13
2022-12-25T13:52:16.224Z,4.15
2022-12-25T13:55:01.168Z,4.00
2022-12-25T13:57:34.328Z,4.57
2022-12-25T14:00:01.560Z,3.80
2022-12-25T14:02:35.942Z,3.53
2022-12-25T14:05:03.447Z,4.40
2022-12-25T14:07:29.878Z,3.83
2022-12-25T14:09:59.916Z,3.28
2022-12-25T14:12:28.952Z,3.60
2022-12-25T14:14:56.889Z,3.05
2022-12-25T14:17:23.912Z,3.33
2022-12-25T14:20:05.729Z,3.22
2022-12-25T14:22:35.934Z,3.45
2022-12-25T14:25:02.363Z,3.70
2022-12-25T14:27:30.395Z,4.05
2022-12-25T14:29:58.982Z,4.72
2022-12-25T14:32:28.427Z,4.57
2022-12-25T14:34:58.612Z,4.20
2022-12-25T14:37:30.807Z,4.68
2022-12-25T14:40:03.226Z,4.28
2022-12-25T14:42:33.221Z,4.65
2022-12-25T14:45:26.425Z,4.03
2022-12-25T14:47:55.346Z,4.28
2022-12-25T14:50:43.699Z,4.32
2022-12-25T14:53:22.605Z,4.25
2022-12-25T14:55:51.875Z,4.75
2022-12-25T14:58:29.697Z,4.82
2022-12-25T15:00:58.518Z,5.07
2022-12-25T15:03:35.328Z,4.78
2022-12-25T15:06:07.064Z,4.13
2022-12-25T15:08:34.940Z,4.82
2022-12-25T15:11:03.042Z,3.90
2022-12-25T15:13:31.239Z,4.75
2022-12-25T15:16:03.029Z,4.15
2022-12-25T15:18:38.925Z,3.85
2022-12-25T15:21:05.507Z,4.05
2022-12-25T15:23:31.908Z,4.03
2022-12-25T15:25:58.279Z,4.20
2022-12-25T15:28:24.653Z,3.85
2022-12-25T15:30:51.009Z,3.58
2022-12-25T15:33:18.876Z,3.53
2022-12-25T15:35:45.599Z,3.78
2022-12-25T15:38:13.191Z,3.80
2022-12-25T15:40:40.705Z,3.65
2022-12-25T15:43:14.569Z,4.00
2022-12-25T15:45:53.815Z,4.15
2022-12-25T15:48:20.225Z,4.00
2022-12-25T15:50:46.716Z,3.65
2022-12-25T15:53:13.200Z,3.97
2022-12-25T15:55:39.807Z,3.88
2022-12-25T15:58:06.109Z,3.83
2022-12-25T16:00:32.463Z,4.25
2022-12-25T16:02:59.220Z,4.43
2022-12-25T16:05:26.626Z,4.70
2022-12-25T16:07:53.010Z,4.93
2022-12-25T16:10:20.321Z,5.93
2022-12-25T16:12:47.176Z,5.38
2022-12-25T16:15:15.233Z,4.93
2022-12-25T16:17:41.598Z,5.90
2022-12-25T16:20:09.128Z,5.70
2022-12-25T16:22:39.792Z,5.18
2022-12-25T16:25:13.130Z,5.90
2022-12-25T16:27:39.446Z,6.07
2022-12-25T16:30:06.889Z,5.80
2022-12-25T16:32:33.305Z,6.03
2022-12-25T16:34:59.693Z,5.28
2022-12-25T16:37:27.087Z,5.60
2022-12-25T16:39:53.377Z,4.82
2022-12-25T16:42:19.669Z,5.32
2022-12-25T16:44:46.092Z,4.65
2022-12-25T16:47:12.404Z,6.03
2022-12-25T16:49:38.727Z,5.50
2022-12-25T16:52:05.123Z,6.25
2022-12-25T16:54:31.402Z,6.40
2022-12-25T16:56:57.789Z,5.72
2022-12-25T16:59:24.115Z,8.40
2022-12-25T17:01:50.589Z,8.63
2022-12-25T17:04:17.018Z,8.18
2022-12-25T17:06:43.452Z,7.90
2022-12-25T17:09:10.525Z,6.70
2022-12-25T17:11:36.921Z,5.50
2022-12-25T17:14:04.233Z,4.80
2022-12-25T17:16:34.031Z,4.43
2022-12-25T17:19:08.114Z,4.72
2022-12-25T17:21:35.047Z,4.15
2022-12-25T17:24:03.969Z,4.38
2022-12-25T17:26:32.136Z,6.40
2022-12-25T17:28:59.145Z,6.68
2022-12-25T17:31:26.016Z,7.15
2022-12-25T17:33:52.564Z,6.45
2022-12-25T17:36:21.137Z,6.50
2022-12-25T17:38:48.463Z,5.80
2022-12-25T17:41:17.108Z,6.05
2022-12-25T17:43:45.562Z,6.20
2022-12-25T17:46:20.895Z,6.53
2022-12-25T17:48:49.810Z,6.20
2022-12-25T17:51:18.691Z,5.57
2022-12-25T17:53:47.985Z,5.80
2022-12-25T17:56:15.551Z,7.75
2022-12-25T17:58:42.263Z,8.30
2022-12-25T18:01:14.011Z,7.85
2022-12-25T18:03:40.800Z,6.65
2022-12-25T18:06:09.934Z,7.00
2022-12-25T18:08:39.649Z,6.60
2022-12-25T18:11:15.030Z,6.43
2022-12-25T18:13:44.675Z,6.75
2022-12-25T18:16:12.444Z,6.10
2022-12-25T18:18:39.656Z,6.10
2022-12-25T18:21:07.319Z,6.03
2022-12-25T18:23:35.028Z,5.55
2022-12-25T18:26:06.587Z,5.90
2022-12-25T18:28:33.419Z,6.05
2022-12-25T18:30:59.879Z,6.25
2022-12-25T18:33:26.555Z,6.25
2022-12-25T18:35:58.943Z,6.10
2022-12-25T18:38:27.427Z,5.90
2022-12-25T18:40:53.873Z,6.55
2022-12-25T18:43:20.752Z,6.57
2022-12-25T18:46:07.597Z,6.20
2022-12-25T18:48:35.265Z,6.43
2022-12-25T18:51:04.133Z,5.60
2022-12-25T18:53:31.385Z,6.15
2022-12-25T18:56:11.081Z,6.95
2022-12-25T18:58:38.242Z,5.80
2022-12-25T19:01:14.800Z,6.10
2022-12-25T19:03:41.521Z,6.45
2022-12-25T19:06:08.021Z,6.90
2022-12-25T19:08:34.341Z,7.30
2022-12-25T19:11:00.834Z,6.50
2022-12-25T19:13:27.217Z,7.25
2022-12-25T19:15:58.259Z,6.57
2022-12-25T19:18:24.755Z,6.55
2022-12-25T19:20:51.082Z,6.28
2022-12-25T19:23:17.400Z,6.50
2022-12-25T19:25:43.706Z,7.35
2022-12-25T19:28:10.044Z,7.10
2022-12-25T19:30:38.447Z,6.18
2022-12-25T19:33:07.385Z,5.93
2022-12-25T19:35:39.272Z,5.97
2022-12-25T19:38:05.614Z,6.43
2022-12-25T19:40:35.697Z,6.93
2022-12-25T19:43:02.258Z,6.95
2022-12-25T19:45:28.578Z,6.93
2022-12-25T19:47:55.885Z,6.80
2022-12-25T19:50:22.220Z,6.32
2022-12-25T19:52:48.496Z,6.47
2022-12-25T19:55:14.872Z,6.85
2022-12-25T19:57:41.245Z,6.07
2022-12-25T20:00:08.149Z,5.95
2022-12-25T20:02:34.616Z,6.70
2022-12-25T20:05:01.009Z,5.90
2022-12-25T20:07:27.323Z,5.65
2022-12-25T20:09:53.658Z,6.25
2022-12-25T20:12:20.153Z,6.05
2022-12-25T20:14:46.632Z,6.07
2022-12-25T20:17:16.025Z,6.85
2022-12-25T20:19:42.687Z,5.78
2022-12-25T20:22:08.977Z,5.75
2022-12-25T20:24:35.354Z,5.93
2022-12-25T20:27:01.713Z,5.32
2022-12-25T20:29:28.078Z,5.50
2022-12-25T20:31:54.453Z,5.15
2022-12-25T20:34:20.857Z,4.72
2022-12-25T20:36:49.072Z,5.20
2022-12-25T20:39:15.439Z,5.80
2022-12-25T20:41:41.799Z,4.75
2022-12-25T20:44:09.864Z,4.65
2022-12-25T20:46:36.734Z,5.72
2022-12-25T20:49:03.503Z,5.60
2022-12-25T20:51:30.096Z,4.95
2022-12-25T20:53:56.633Z,5.47
2022-12-25T20:56:25.012Z,4.88
2022-12-25T20:58:59.673Z,6.05
2022-12-25T21:01:27.667Z,5.47
2022-12-25T21:03:55.054Z,5.63
2022-12-25T21:06:22.888Z,5.22
2022-12-25T21:08:49.449Z,5.05
2022-12-25T21:11:16.680Z,5.20
2022-12-25T21:13:45.301Z,5.15
2022-12-25T21:16:14.704Z,6.03
2022-12-25T21:18:41.389Z,4.40
2022-12-25T21:21:08.899Z,5.07
2022-12-25T21:23:37.941Z,5.15
2022-12-25T21:26:10.826Z,5.07
2022-12-25T21:28:37.261Z,5.45
2022-12-25T21:31:05.578Z,5.45
2022-12-25T21:33:51.572Z,5.30
2022-12-25T21:39:04.843Z,5.75
2022-12-25T21:41:32.995Z,4.78
2022-12-25T21:44:00.000Z,4.72
2022-12-25T21:46:27.519Z,4.45
2022-12-25T21:48:54.680Z,4.20
2022-12-25T21:51:42.839Z,4.07
2022-12-25T21:54:10.076Z,4.50
2022-12-25T21:56:44.121Z,4.80
2022-12-25T21:59:16.055Z,4.40
2022-12-25T22:01:43.095Z,4.85
2022-12-25T22:04:09.996Z,4.93
2022-12-25T22:06:55.239Z,4.70
2022-12-25T22:09:21.858Z,4.53
2022-12-25T22:12:06.823Z,4.22
2022-12-25T22:14:56.865Z,4.25
2022-12-25T22:17:48.009Z,4.75
2022-12-25T22:20:17.368Z,4.43
2022-12-25T22:22:44.463Z,4.22
2022-12-25T22:25:11.809Z,3.88
2022-12-25T22:27:39.470Z,3.95
2022-12-25T22:30:11.515Z,4.00
2022-12-25T22:32:38.128Z,3.42
2022-12-25T22:35:05.042Z,3.88
2022-12-25T22:37:32.157Z,3.85
2022-12-25T22:40:00.593Z,3.63
2022-12-25T22:42:27.105Z,3.85
2022-12-25T22:44:53.453Z,4.15
2022-12-25T22:47:19.853Z,3.47
2022-12-25T22:49:46.233Z,3.00
2022-12-25T22:52:12.618Z,2.88
2022-12-25T22:54:39.099Z,3.20
2022-12-25T22:57:05.790Z,2.85
2022-12-25T22:59:32.930Z,2.90
2022-12-25T23:02:00.333Z,3.25
2022-12-25T23:04:27.861Z,2.88
2022-12-25T23:06:54.220Z,3.20
2022-12-25T23:09:27.306Z,3.13
2022-12-25T23:11:55.434Z,3.13
2022-12-25T23:14:40.643Z,2.97
2022-12-25T23:17:30.867Z,3.40
2022-12-25T23:20:17.084Z,2.58
2022-12-25T23:23:02.531Z,2.78
2022-12-25T23:25:48.359Z,3.50
2022-12-25T23:28:14.787Z,3.67
2022-12-25T23:30:41.077Z,2.78
2022-12-25T23:33:07.417Z,3.17
2022-12-25T23:35:33.891Z,2.90
2022-12-25T23:38:00.219Z,2.67
2022-12-25T23:40:26.684Z,3.20
2022-12-25T23:42:53.009Z,3.08
2022-12-25T23:45:19.287Z,3.10
2022-12-25T23:47:45.589Z,2.53
2022-12-25T23:50:11.940Z,2.92
2022-12-25T23:52:38.292Z,3.00
2022-12-25T23:55:05.053Z,2.70
2022-12-25T23:57:31.392Z,2.97
2022-12-25T23:59:57.712Z,3.28
